Time;durP1;ratioP1;P1;durP2;ratioP2;P2;SDS_P1;SDS_P2;PMS_P1;PMS_P2;Temp;Humidity;BMP_temperature;BMP_pressure;BME280_temperature;BME280_humidity;BME280_pressure;Samples;Min_cycle;Max_cycle;Signal;HPM_P1;HPM_P2
2023/08/24 00:00:07;;;;;;;1999.90;999.90;;;12.80;99.90;;;;;;5101129;28;20496;-68
2023/08/24 00:02:32;;;;;;;1999.90;999.90;;;12.80;99.90;;;;;;5081768;28;20047;-68
2023/08/24 00:04:58;;;;;;;1999.90;999.90;;;12.80;99.90;;;;;;5086351;28;20056;-68
2023/08/24 00:07:24;;;;;;;1999.90;999.90;;;12.80;99.90;;;;;;5105942;28;20048;-68
2023/08/24 00:09:52;;;;;;;1999.90;999.90;;;12.70;99.90;;;;;;5089610;28;20051;-68
2023/08/24 00:12:18;;;;;;;1999.90;999.90;;;12.70;99.90;;;;;;5081203;28;20078;-68
2023/08/24 00:14:44;;;;;;;1999.90;999.90;;;12.70;99.90;;;;;;5088947;28;20599;-68
2023/08/24 00:17:09;;;;;;;1999.90;999.90;;;12.70;99.90;;;;;;5064601;28;20046;-68
2023/08/24 00:19:35;;;;;;;1999.90;999.90;;;12.70;99.90;;;;;;5089363;28;20051;-68
2023/08/24 00:22:01;;;;;;;1999.90;999.90;;;12.70;99.90;;;;;;5073759;28;20058;-68
2023/08/24 00:24:26;;;;;;;1999.90;999.90;;;12.60;99.90;;;;;;5087534;28;20784;-68
2023/08/24 00:26:52;;;;;;;1999.90;999.90;;;12.70;99.90;;;;;;5071159;28;20055;-68
2023/08/24 00:29:18;;;;;;;1999.90;999.90;;;12.70;99.90;;;;;;5093772;28;20040;-68
2023/08/24 00:31:43;;;;;;;1999.90;999.90;;;12.60;99.90;;;;;;5084635;28;20040;-68
2023/08/24 00:34:09;;;;;;;1999.90;999.90;;;12.60;99.90;;;;;;5104767;28;20389;-68
2023/08/24 00:36:34;;;;;;;1999.90;999.90;;;12.70;99.90;;;;;;5067374;28;20044;-68
2023/08/24 00:39:00;;;;;;;1999.90;999.90;;;12.70;99.90;;;;;;5096280;28;20734;-68
2023/08/24 00:41:26;;;;;;;1999.90;999.90;;;12.80;99.90;;;;;;5088364;28;20043;-68
2023/08/24 00:43:53;;;;;;;1999.90;999.90;;;12.80;99.90;;;;;;5071267;28;20577;-68
2023/08/24 00:46:19;;;;;;;1999.90;999.90;;;12.80;99.90;;;;;;5087457;28;20040;-68
2023/08/24 00:48:45;;;;;;;1999.90;999.90;;;12.80;99.90;;;;;;5084878;28;20044;-68
2023/08/24 00:51:11;;;;;;;1999.90;999.90;;;12.80;99.90;;;;;;5092014;28;20082;-68
2023/08/24 00:53:37;;;;;;;1999.90;999.90;;;12.80;99.90;;;;;;5086408;28;20510;-68
2023/08/24 00:56:03;;;;;;;1999.90;999.90;;;12.80;99.90;;;;;;5091270;28;20043;-68
2023/08/24 00:58:31;;;;;;;1999.90;999.90;;;12.90;99.90;;;;;;5071321;28;20044;-68
2023/08/24 01:00:57;;;;;;;1999.90;999.90;;;12.90;99.90;;;;;;5085933;28;20090;-68
2023/08/24 01:03:24;;;;;;;1999.90;999.90;;;13.00;99.90;;;;;;5083736;28;20043;-68
2023/08/24 01:05:49;;;;;;;1999.90;999.90;;;13.00;99.90;;;;;;5087321;28;20411;-68
2023/08/24 01:08:15;;;;;;;1999.90;999.90;;;13.10;99.90;;;;;;5062982;28;20131;-68
2023/08/24 01:10:53;;;;;;;1999.90;999.90;;;13.10;99.90;;;;;;5070263;28;20071;-68
2023/08/24 01:13:41;;;;;;;1999.90;999.90;;;13.10;99.90;;;;;;5068295;28;20131;-68
2023/08/24 01:16:16;;;;;;;1999.90;999.90;;;13.10;99.90;;;;;;5087198;28;20073;-68
2023/08/24 01:18:42;;;;;;;;;;;13.20;99.90;;;;;;5080154;28;20052;-68
2023/08/24 01:21:08;;;;;;;1999.90;999.90;;;13.20;99.90;;;;;;5076121;28;19924;-68
2023/08/24 01:23:43;;;;;;;1999.90;999.90;;;13.20;99.90;;;;;;5087888;28;20052;-68
2023/08/24 01:26:11;;;;;;;1999.90;999.90;;;13.20;99.90;;;;;;5085936;28;20532;-68
2023/08/24 01:28:38;;;;;;;1999.90;999.90;;;13.20;99.90;;;;;;5087461;28;20047;-68
2023/08/24 01:31:05;;;;;;;1999.90;999.90;;;13.20;99.90;;;;;;5076456;28;20037;-68
2023/08/24 01:33:31;;;;;;;1999.90;999.90;;;13.20;99.90;;;;;;5063253;28;20054;-68
2023/08/24 01:35:57;;;;;;;1999.90;999.90;;;13.20;99.90;;;;;;5085294;28;20037;-68
2023/08/24 01:38:22;;;;;;;1999.90;999.90;;;13.30;99.90;;;;;;5067864;28;20070;-68
2023/08/24 01:41:10;;;;;;;1999.90;999.90;;;13.30;99.90;;;;;;5092839;28;20070;-68
2023/08/24 01:43:36;;;;;;;1999.90;999.90;;;13.20;99.90;;;;;;5096588;28;20080;-68
2023/08/24 01:46:07;;;;;;;1999.90;999.90;;;13.20;99.90;;;;;;5087734;28;20036;-68
2023/08/24 01:48:34;;;;;;;1999.90;999.90;;;13.20;99.90;;;;;;5086423;28;20040;-68
2023/08/24 01:51:01;;;;;;;1999.90;999.90;;;13.30;99.90;;;;;;5087440;28;20048;-68
2023/08/24 01:53:30;;;;;;;1999.90;999.90;;;13.30;99.90;;;;;;5086629;28;20072;-68
2023/08/24 01:55:55;;;;;;;1999.90;999.90;;;13.30;99.90;;;;;;5091806;28;20416;-68
2023/08/24 01:58:21;;;;;;;1999.90;999.90;;;13.30;99.90;;;;;;5104296;28;20048;-68
2023/08/24 02:00:46;;;;;;;1999.90;999.90;;;13.30;99.90;;;;;;5068616;28;20043;-68
2023/08/24 02:03:12;;;;;;;1999.90;999.90;;;13.40;99.90;;;;;;5096252;28;20036;-68
2023/08/24 02:05:37;;;;;;;1999.90;999.90;;;13.40;99.90;;;;;;5102227;28;20048;-68
2023/08/24 02:08:03;;;;;;;1999.90;999.90;;;13.40;99.90;;;;;;5069499;28;20133;-68
2023/08/24 02:10:29;;;;;;;1999.90;999.90;;;13.50;99.90;;;;;;5083542;28;20048;-68
2023/08/24 02:12:55;;;;;;;1999.90;999.90;;;13.50;99.90;;;;;;5090446;28;20053;-68
2023/08/24 02:15:20;;;;;;;1999.90;999.90;;;13.50;99.90;;;;;;5098212;28;20148;-68
2023/08/24 02:17:46;;;;;;;1999.90;999.90;;;13.50;99.90;;;;;;5097081;28;20048;-68
2023/08/24 02:20:12;;;;;;;1999.90;999.90;;;13.50;99.90;;;;;;5067900;28;20044;-68
2023/08/24 02:22:38;;;;;;;1999.90;999.90;;;13.50;99.90;;;;;;5086466;28;20043;-68
2023/08/24 02:25:05;;;;;;;1999.90;999.90;;;13.50;99.90;;;;;;5088042;28;20040;-68
2023/08/24 02:27:34;;;;;;;1999.90;999.90;;;13.50;99.90;;;;;;5086485;28;20488;-68
2023/08/24 02:30:00;;;;;;;1999.90;999.90;;;13.50;99.90;;;;;;5081297;28;20050;-68
2023/08/24 02:32:26;;;;;;;1999.90;999.90;;;13.60;99.90;;;;;;5087200;28;20384;-68
2023/08/24 02:34:51;;;;;;;1999.90;999.90;;;13.60;99.90;;;;;;5086929;28;20047;-68
2023/08/24 02:37:17;;;;;;;1999.90;999.90;;;13.60;99.90;;;;;;5095764;28;20043;-68
2023/08/24 02:39:42;;;;;;;1999.90;999.90;;;13.70;99.90;;;;;;5086661;28;20032;-68
2023/08/24 02:42:09;;;;;;;1999.90;999.90;;;13.80;99.90;;;;;;5068163;28;20038;-68
2023/08/24 02:44:35;;;;;;;1999.90;999.90;;;13.80;99.90;;;;;;5069422;28;20043;-68
2023/08/24 02:47:01;;;;;;;1999.90;999.90;;;13.80;99.90;;;;;;5089606;28;20040;-68
2023/08/24 02:49:26;;;;;;;1999.90;999.90;;;13.80;99.90;;;;;;5089281;28;20495;-68
2023/08/24 02:51:52;;;;;;;1999.90;999.90;;;13.80;99.90;;;;;;5069625;28;20040;-68
2023/08/24 02:54:18;;;;;;;1999.90;999.90;;;13.80;99.90;;;;;;5087677;28;20051;-68
2023/08/24 02:56:43;;;;;;;1999.90;999.90;;;13.90;99.90;;;;;;5080398;28;20144;-68
2023/08/24 02:59:09;;;;;;;1999.90;999.90;;;13.90;99.90;;;;;;5068922;28;20039;-68
2023/08/24 03:01:38;;;;;;;1999.90;999.90;;;13.90;99.90;;;;;;5098535;28;20131;-68
2023/08/24 03:04:04;;;;;;;1999.90;999.90;;;13.90;99.90;;;;;;5079205;28;20040;-68
2023/08/24 03:06:31;;;;;;;1999.90;999.90;;;13.90;99.90;;;;;;5089003;28;20151;-68
2023/08/24 03:08:56;;;;;;;1999.90;999.90;;;13.90;99.90;;;;;;5075433;28;20039;-68
2023/08/24 03:11:22;;;;;;;1999.90;999.90;;;13.90;99.90;;;;;;5062842;28;20044;-68
2023/08/24 03:13:48;;;;;;;1999.90;999.90;;;13.80;99.90;;;;;;5088026;28;20043;-68
2023/08/24 03:16:13;;;;;;;1999.90;999.90;;;13.80;99.90;;;;;;5069705;28;20062;-68
2023/08/24 03:18:39;;;;;;;1999.90;999.90;;;13.80;99.90;;;;;;5092140;28;20681;-68
2023/08/24 03:21:04;;;;;;;1999.90;999.90;;;13.70;99.90;;;;;;5073673;28;20041;-68
2023/08/24 03:23:30;;;;;;;1999.90;999.90;;;13.70;99.90;;;;;;5099935;28;20043;-68
2023/08/24 03:25:56;;;;;;;1999.90;999.90;;;13.70;99.90;;;;;;5085927;28;20594;-68
2023/08/24 03:28:22;;;;;;;1999.90;999.90;;;13.70;99.90;;;;;;5071292;28;20400;-68
2023/08/24 03:30:50;;;;;;;1999.90;999.90;;;13.60;99.90;;;;;;5102368;28;20040;-68
2023/08/24 03:33:16;;;;;;;1999.90;999.90;;;13.60;99.90;;;;;;5089035;28;20044;-68
2023/08/24 03:35:42;;;;;;;1999.90;999.90;;;13.60;99.90;;;;;;5106650;28;20040;-68
2023/08/24 03:38:08;;;;;;;1999.90;999.90;;;13.60;99.90;;;;;;5106602;28;20600;-68
2023/08/24 03:40:33;;;;;;;1999.90;999.90;;;13.60;99.90;;;;;;5083528;28;20155;-68
2023/08/24 03:43:01;;;;;;;1999.90;999.90;;;13.60;99.90;;;;;;5095278;28;20058;-68
2023/08/24 03:45:26;;;;;;;1999.90;999.90;;;13.60;99.90;;;;;;5089173;28;20058;-68
2023/08/24 03:47:52;;;;;;;1999.90;999.90;;;13.60;99.90;;;;;;5106171;28;20040;-68
2023/08/24 03:50:17;;;;;;;1999.90;999.90;;;13.60;99.90;;;;;;5088962;28;20048;-68
2023/08/24 03:52:43;;;;;;;1999.90;999.90;;;13.60;99.90;;;;;;5105876;28;20115;-68
2023/08/24 03:55:09;;;;;;;1999.90;999.90;;;13.60;99.90;;;;;;5072275;28;20449;-68
2023/08/24 03:57:35;;;;;;;1999.90;999.90;;;13.70;99.90;;;;;;5094319;28;20077;-68
2023/08/24 04:00:00;;;;;;;1999.90;999.90;;;13.70;99.90;;;;;;5083820;28;20042;-68
2023/08/24 04:02:26;;;;;;;1999.90;999.90;;;13.70;99.90;;;;;;5071655;28;20082;-68
2023/08/24 04:04:52;;;;;;;1999.90;999.90;;;13.70;99.90;;;;;;5088331;28;20502;-68
2023/08/24 04:07:18;;;;;;;1999.90;999.90;;;13.70;99.90;;;;;;5104349;28;20044;-68
2023/08/24 04:09:45;;;;;;;1999.90;999.90;;;13.70;99.90;;;;;;5106208;28;20039;-68
2023/08/24 04:12:11;;;;;;;1999.90;999.90;;;13.70;99.90;;;;;;5086612;28;20115;-68
2023/08/24 04:14:36;;;;;;;1999.90;999.90;;;13.80;99.90;;;;;;5069476;28;20131;-68
2023/08/24 04:17:02;;;;;;;1999.90;999.90;;;13.80;99.90;;;;;;5071666;28;20047;-68
2023/08/24 04:19:27;;;;;;;1999.90;999.90;;;13.80;99.90;;;;;;5081795;28;20078;-68
2023/08/24 04:21:53;;;;;;;1999.90;999.90;;;13.80;99.90;;;;;;5088081;28;20048;-68
2023/08/24 04:24:19;;;;;;;1999.90;999.90;;;13.90;99.90;;;;;;5064300;28;20067;-68
2023/08/24 04:26:44;;;;;;;1999.90;999.90;;;13.90;99.90;;;;;;5087935;28;20142;-68
2023/08/24 04:29:10;;;;;;;1999.90;999.90;;;13.90;99.90;;;;;;5088752;28;20504;-68
2023/08/24 04:31:37;;;;;;;1999.90;999.90;;;14.00;99.90;;;;;;5079669;28;20032;-68
2023/08/24 04:34:04;;;;;;;1999.90;999.90;;;14.00;99.90;;;;;;5067434;28;20123;-68
2023/08/24 04:36:29;;;;;;;1999.90;999.90;;;14.00;99.90;;;;;;5086541;28;20047;-68
2023/08/24 04:38:55;;;;;;;1999.90;999.90;;;14.00;99.90;;;;;;5090558;28;20048;-68
2023/08/24 04:41:20;;;;;;;1999.90;999.90;;;13.90;99.90;;;;;;5099309;28;20105;-68
2023/08/24 04:43:46;;;;;;;1999.90;999.90;;;13.90;99.90;;;;;;5083520;28;20051;-68
2023/08/24 04:46:12;;;;;;;1999.90;999.90;;;13.90;99.90;;;;;;5092209;28;20043;-68
2023/08/24 04:48:37;;;;;;;1999.90;999.90;;;13.90;99.90;;;;;;5100757;28;20032;-68
2023/08/24 04:51:03;;;;;;;1999.90;999.90;;;13.90;99.90;;;;;;5075039;28;20040;-68
2023/08/24 04:53:29;;;;;;;1999.90;999.90;;;13.80;99.90;;;;;;5094523;28;20080;-68
2023/08/24 04:55:54;;;;;;;1999.90;999.90;;;13.80;99.90;;;;;;5083208;28;20055;-68
2023/08/24 04:58:21;;;;;;;1999.90;999.90;;;13.80;99.90;;;;;;5096394;28;20046;-68
2023/08/24 05:00:48;;;;;;;1999.90;999.90;;;13.80;99.90;;;;;;5086942;28;20089;-68
2023/08/24 05:03:14;;;;;;;1999.90;999.90;;;13.80;99.90;;;;;;5075187;28;20522;-68
2023/08/24 05:05:39;;;;;;;1999.90;999.90;;;13.80;99.90;;;;;;5085231;28;20048;-68
2023/08/24 05:08:06;;;;;;;1999.90;999.90;;;13.80;99.90;;;;;;5070941;28;20836;-68
2023/08/24 05:10:33;;;;;;;1999.90;999.90;;;13.80;99.90;;;;;;5103925;28;20696;-68
2023/08/24 05:12:59;;;;;;;1999.90;999.90;;;13.80;99.90;;;;;;5075074;28;20093;-68
2023/08/24 05:15:26;;;;;;;1999.90;999.90;;;13.80;99.90;;;;;;5092397;28;20070;-68
2023/08/24 05:17:59;;;;;;;1999.90;999.90;;;13.80;99.90;;;;;;5068740;28;20068;-68
2023/08/24 05:20:28;;;;;;;1999.90;999.90;;;13.90;99.90;;;;;;5087274;28;20131;-68
2023/08/24 05:22:57;;;;;;;1999.90;999.90;;;13.90;99.90;;;;;;5087239;28;20035;-68
2023/08/24 05:25:23;;;;;;;1999.90;999.90;;;13.90;99.90;;;;;;5082157;28;20051;-68
2023/08/24 05:27:49;;;;;;;1999.90;999.90;;;13.90;99.90;;;;;;5088259;28;20040;-68
2023/08/24 05:30:14;;;;;;;1999.90;999.90;;;13.90;99.90;;;;;;5086971;28;20740;-68
2023/08/24 05:32:40;;;;;;;1999.90;999.90;;;13.90;99.90;;;;;;5094940;28;20815;-68
2023/08/24 05:35:06;;;;;;;1999.90;999.90;;;13.90;99.90;;;;;;5086226;28;20133;-68
2023/08/24 05:37:32;;;;;;;1999.90;999.90;;;14.00;99.90;;;;;;5086888;28;20126;-68
2023/08/24 05:39:59;;;;;;;1999.90;999.90;;;14.00;99.90;;;;;;5085846;28;20039;-68
2023/08/24 05:42:25;;;;;;;1999.90;999.90;;;14.10;99.90;;;;;;5070114;28;20052;-68
2023/08/24 05:44:50;;;;;;;1999.90;999.90;;;14.10;99.90;;;;;;5081335;28;20089;-68
2023/08/24 05:47:16;;;;;;;1999.90;999.90;;;14.20;99.90;;;;;;5101740;28;20431;-68
2023/08/24 05:49:41;;;;;;;1999.90;999.90;;;14.30;99.90;;;;;;5079776;28;20044;-68
2023/08/24 05:52:07;;;;;;;1999.90;999.90;;;14.40;99.90;;;;;;5073153;28;20459;-68
2023/08/24 05:54:33;;;;;;;1999.90;999.90;;;14.50;99.90;;;;;;5086571;28;20527;-68
2023/08/24 05:57:01;;;;;;;1999.90;999.90;;;14.60;99.90;;;;;;5069234;28;20138;-68
2023/08/24 05:59:27;;;;;;;1999.90;999.90;;;14.70;99.90;;;;;;5086511;28;20046;-68
2023/08/24 06:01:53;;;;;;;1999.90;999.90;;;14.80;99.90;;;;;;5068279;28;20036;-68
2023/08/24 06:04:18;;;;;;;1999.90;999.90;;;14.90;99.90;;;;;;5086495;28;20527;-68
2023/08/24 06:06:44;;;;;;;1999.90;999.90;;;15.00;99.90;;;;;;5066292;28;20028;-68
2023/08/24 06:09:10;;;;;;;1999.90;999.90;;;15.10;99.90;;;;;;5087531;28;20044;-68
2023/08/24 06:11:36;;;;;;;1999.90;999.90;;;15.20;99.90;;;;;;5082681;28;20102;-68
2023/08/24 06:14:02;;;;;;;1999.90;999.90;;;15.30;99.90;;;;;;5077996;28;20492;-68
2023/08/24 06:16:28;;;;;;;1999.90;999.90;;;15.40;99.90;;;;;;5099220;28;20496;-68
2023/08/24 06:18:54;;;;;;;1999.90;999.90;;;15.50;99.90;;;;;;5087102;28;20052;-68
2023/08/24 06:21:20;;;;;;;1999.90;999.90;;;15.60;99.90;;;;;;5061706;28;20036;-68
2023/08/24 06:23:47;;;;;;;1999.90;999.90;;;15.70;99.90;;;;;;5099681;28;20415;-68
2023/08/24 06:26:13;;;;;;;1999.90;999.90;;;15.80;99.90;;;;;;5088936;28;20040;-69
2023/08/24 06:28:39;;;;;;;1999.90;999.90;;;15.90;99.90;;;;;;5069518;28;20072;-68
2023/08/24 06:31:07;;;;;;;1999.90;999.90;;;16.00;99.90;;;;;;5086314;28;20082;-68
2023/08/24 06:33:37;;;;;;;1999.90;999.90;;;16.00;99.90;;;;;;5086367;28;20795;-68
2023/08/24 06:36:05;;;;;;;1999.90;999.90;;;16.10;99.90;;;;;;5090865;28;20048;-70
2023/08/24 06:38:31;;;;;;;1999.90;999.90;;;16.20;99.90;;;;;;5088357;28;20051;-68
2023/08/24 06:41:00;;;;;;;1999.90;999.90;;;16.30;99.90;;;;;;5086319;28;20040;-69
2023/08/24 06:43:26;;;;;;;1999.90;999.90;;;16.40;99.90;;;;;;5090272;28;20039;-68
2023/08/24 06:45:54;;;;;;;1999.90;999.90;;;16.50;99.90;;;;;;5090287;28;20795;-68
2023/08/24 06:48:20;;;;;;;1999.90;999.90;;;16.60;99.90;;;;;;5091843;28;20044;-68
2023/08/24 06:50:45;;;;;;;1999.90;999.90;;;16.60;99.90;;;;;;5073145;28;20040;-68
2023/08/24 06:53:11;;;;;;;1999.90;999.90;;;16.70;99.90;;;;;;5073325;28;20411;-68
2023/08/24 06:55:37;;;;;;;1999.90;999.90;;;16.80;99.90;;;;;;5087770;28;20043;-68
2023/08/24 06:58:06;;;;;;;1999.90;999.90;;;16.90;99.90;;;;;;5090196;28;20040;-68
2023/08/24 07:00:33;;;;;;;1999.90;999.90;;;17.00;99.90;;;;;;5094976;28;20051;-69
2023/08/24 07:02:59;;;;;;;1999.90;999.90;;;17.20;99.90;;;;;;5086732;28;20062;-69
2023/08/24 07:05:25;;;;;;;1999.90;999.90;;;17.30;99.90;;;;;;5064412;28;20394;-68
2023/08/24 07:07:51;;;;;;;1999.90;999.90;;;17.30;99.90;;;;;;5089123;28;20694;-69
2023/08/24 07:10:17;;;;;;;1999.90;999.90;;;17.40;99.90;;;;;;5099522;28;20036;-68
2023/08/24 07:12:44;;;;;;;1999.90;999.90;;;17.50;99.90;;;;;;5075952;28;20527;-69
2023/08/24 07:15:13;;;;;;;1999.90;999.90;;;17.60;99.90;;;;;;5060024;28;20043;-68
2023/08/24 07:17:40;;;;;;;1999.90;999.90;;;17.70;99.90;;;;;;5104261;28;20503;-69
2023/08/24 07:20:09;;;;;;;1999.90;999.90;;;17.80;99.90;;;;;;5089248;28;20048;-70
2023/08/24 07:22:35;;;;;;;1999.90;999.90;;;17.90;99.90;;;;;;5089623;28;20054;-69
2023/08/24 07:25:04;;;;;;;1999.90;999.90;;;18.10;99.90;;;;;;5085012;28;20044;-68
2023/08/24 07:27:31;;;;;;;1999.90;999.90;;;18.20;99.90;;;;;;5089754;28;20082;-69
2023/08/24 07:29:57;;;;;;;1999.90;999.90;;;18.20;99.90;;;;;;5089824;28;20444;-68
2023/08/24 07:32:23;;;;;;;1999.90;999.90;;;18.40;99.90;;;;;;5105657;28;20071;-68
2023/08/24 07:34:49;;;;;;;1999.90;999.90;;;18.40;99.90;;;;;;5072108;28;20380;-69
2023/08/24 07:37:15;;;;;;;1999.90;999.90;;;18.50;99.90;;;;;;5070037;28;20035;-69
2023/08/24 07:39:40;;;;;;;1999.90;999.90;;;18.60;99.90;;;;;;5067908;28;20050;-69
2023/08/24 07:42:06;;;;;;;1999.90;999.90;;;18.70;99.90;;;;;;5105066;28;20036;-69
2023/08/24 07:44:31;;;;;;;1999.90;999.90;;;18.80;99.90;;;;;;5104037;28;20424;-69
2023/08/24 07:46:57;;;;;;;1999.90;999.90;;;18.90;99.90;;;;;;5087167;28;20799;-69
2023/08/24 07:49:22;;;;;;;1999.90;999.90;;;18.90;99.90;;;;;;5089534;28;20044;-68
2023/08/24 07:51:48;;;;;;;1999.90;999.90;;;19.00;99.90;;;;;;5084954;28;20047;-69
2023/08/24 07:54:14;;;;;;;1999.90;999.90;;;19.10;99.90;;;;;;5088271;28;20052;-69
2023/08/24 07:56:40;;;;;;;1999.90;999.90;;;19.20;99.90;;;;;;5093351;28;20776;-69
2023/08/24 07:59:06;;;;;;;1999.90;999.90;;;19.30;99.90;;;;;;5086182;28;20086;-69
2023/08/24 08:01:32;;;;;;;1999.90;999.90;;;19.40;99.90;;;;;;5086119;28;20055;-69
2023/08/24 08:03:58;;;;;;;1999.90;999.90;;;19.60;99.90;;;;;;5088482;28;20070;-69
2023/08/24 08:06:24;;;;;;;1999.90;999.90;;;19.70;99.90;;;;;;5086203;28;20084;-70
2023/08/24 08:08:51;;;;;;;1999.90;999.90;;;19.80;99.90;;;;;;5087855;28;20043;-69
2023/08/24 08:11:17;;;;;;;1999.90;999.90;;;19.90;99.90;;;;;;5086903;28;20051;-69
2023/08/24 08:13:42;;;;;;;1999.90;999.90;;;19.90;99.90;;;;;;5083599;28;20040;-69
2023/08/24 08:16:08;;;;;;;1999.90;999.90;;;20.00;99.90;;;;;;5104650;28;20047;-69
2023/08/24 08:18:35;;;;;;;1999.90;999.90;;;20.10;99.90;;;;;;5085525;28;20043;-69
2023/08/24 08:21:03;;;;;;;1999.90;999.90;;;20.10;99.90;;;;;;5100820;28;20401;-69
2023/08/24 08:23:29;;;;;;;1999.90;999.90;;;20.30;99.90;;;;;;5089721;28;20044;-68
2023/08/24 08:25:54;;;;;;;1999.90;999.90;;;20.40;99.90;;;;;;5094785;28;20051;-69
2023/08/24 08:28:20;;;;;;;1999.90;999.90;;;20.50;99.90;;;;;;5098793;28;20032;-69
2023/08/24 08:30:48;;;;;;;1999.90;999.90;;;20.60;99.90;;;;;;5090852;28;20044;-69
2023/08/24 08:33:14;;;;;;;1999.90;999.90;;;20.70;99.90;;;;;;5093059;28;20048;-68
2023/08/24 08:35:40;;;;;;;1999.90;999.90;;;20.80;99.90;;;;;;5070152;28;20077;-69
2023/08/24 08:38:07;;;;;;;1999.90;999.90;;;20.90;99.90;;;;;;5083625;28;20555;-69
2023/08/24 08:40:37;;;;;;;510.92;480.13;;;21.00;99.90;;;;;;5087831;28;20039;-69
2023/08/24 08:43:02;;;;;;;429.00;404.75;;;21.20;99.90;;;;;;5088459;28;20397;-69
2023/08/24 08:45:29;;;;;;;316.90;300.42;;;21.50;99.90;;;;;;5087483;28;20043;-68
2023/08/24 08:47:59;;;;;;;283.90;269.85;;;22.00;99.90;;;;;;5095264;28;20036;-69
2023/08/24 08:50:25;;;;;;;299.08;283.65;;;22.70;99.90;;;;;;5070707;28;20056;-69
2023/08/24 08:52:51;;;;;;;442.27;417.42;;;23.40;99.90;;;;;;5096613;28;20074;-70
2023/08/24 08:55:17;;;;;;;508.02;479.63;;;23.90;99.90;;;;;;5087423;28;20036;-69
2023/08/24 08:57:45;;;;;;;416.40;393.35;;;24.40;99.90;;;;;;5084941;28;20089;-69
2023/08/24 09:00:14;;;;;;;382.52;362.65;;;24.70;99.90;;;;;;5083225;28;20044;-69
2023/08/24 09:02:44;;;;;;;406.52;385.40;;;24.80;99.90;;;;;;5081811;28;20043;-69
2023/08/24 09:05:10;;;;;;;404.02;382.83;;;24.60;99.90;;;;;;5088119;28;20070;-69
2023/08/24 09:07:39;;;;;;;355.02;337.05;;;24.40;99.90;;;;;;5095957;28;20043;-69
2023/08/24 09:10:06;;;;;;;458.05;433.80;;;24.20;99.90;;;;;;5082445;28;20063;-69
2023/08/24 09:12:35;;;;;;;493.40;466.75;;;23.90;99.90;;;;;;5067358;28;20127;-69
2023/08/24 09:15:04;;;;;;;532.60;503.45;;;23.80;99.90;;;;;;5097773;28;20439;-70
2023/08/24 09:17:30;;;;;;;528.97;500.30;;;23.60;99.90;;;;;;5086841;28;20035;-69
2023/08/24 09:19:59;;;;;;;529.75;500.75;;;23.60;99.90;;;;;;5098035;28;20466;-69
2023/08/24 09:22:25;;;;;;;513.72;484.95;;;23.50;99.90;;;;;;5086860;28;20519;-69
2023/08/24 09:24:50;;;;;;;526.72;497.80;;;23.50;99.90;;;;;;5064960;28;20036;-69
2023/08/24 09:27:18;;;;;;;527.47;498.52;;;23.40;99.90;;;;;;5065421;28;20044;-69
2023/08/24 09:29:48;;;;;;;511.73;483.83;;;23.40;99.90;;;;;;5086954;28;20054;-69
2023/08/24 09:32:14;;;;;;;504.92;477.02;;;23.40;99.90;;;;;;5068948;28;20047;-69
2023/08/24 09:34:39;;;;;;;525.25;496.27;;;23.40;99.90;;;;;;5087959;28;20031;-69
2023/08/24 09:37:14;;;;;;;500.33;473.20;;;23.30;99.90;;;;;;5081753;28;20040;-69
2023/08/24 09:39:39;;;;;;;489.65;463.27;;;23.30;99.90;;;;;;5087276;28;20519;-69
2023/08/24 09:42:05;;;;;;;504.63;477.25;;;23.20;99.90;;;;;;5086498;28;20044;-69
2023/08/24 09:44:31;;;;;;;468.85;444.83;;;23.20;99.90;;;;;;5079177;28;20452;-69
2023/08/24 09:46:56;;;;;;;442.30;419.25;;;23.10;99.90;;;;;;5088186;28;20123;-69
2023/08/24 09:49:22;;;;;;;428.75;406.35;;;23.00;99.90;;;;;;5086566;28;20057;-69
2023/08/24 09:51:49;;;;;;;458.48;433.27;;;23.00;99.90;;;;;;5084989;28;20040;-69
2023/08/24 09:54:16;;;;;;;427.50;404.75;;;23.00;99.90;;;;;;5076405;28;20032;-69
2023/08/24 09:56:43;;;;;;;426.23;403.52;;;23.00;99.90;;;;;;5090719;28;20075;-69
2023/08/24 09:59:21;;;;;;;410.48;388.35;;;23.00;99.90;;;;;;5086380;28;20040;-69
2023/08/24 10:01:49;;;;;;;409.15;386.85;;;23.00;99.90;;;;;;5090540;28;20071;-69
2023/08/24 10:04:17;;;;;;;401.58;380.20;;;23.00;99.90;;;;;;5081428;28;20044;-68
2023/08/24 10:06:46;;;;;;;384.17;363.55;;;23.00;99.90;;;;;;5087665;28;20055;-69
2023/08/24 10:09:30;;;;;;;367.60;348.67;;;23.00;99.90;;;;;;5087054;28;20039;-69
2023/08/24 10:12:00;;;;;;;368.23;349.17;;;22.90;99.90;;;;;;5075692;28;20044;-69
2023/08/24 10:14:35;;;;;;;335.65;318.88;;;22.90;99.90;;;;;;5079536;28;20773;-69
2023/08/24 10:17:02;;;;;;;343.30;325.67;;;22.80;99.90;;;;;;5082658;28;20442;-69
2023/08/24 10:19:28;;;;;;;341.50;324.45;;;22.80;99.90;;;;;;5078472;28;20086;-69
2023/08/24 10:21:57;;;;;;;349.25;331.77;;;22.70;99.90;;;;;;5083905;28;20099;-69
2023/08/24 10:24:23;;;;;;;349.27;331.60;;;22.60;99.90;;;;;;5081159;28;20637;-69
2023/08/24 10:26:49;;;;;;;338.73;321.73;;;22.60;99.90;;;;;;5078258;28;20036;-69
2023/08/24 10:29:16;;;;;;;299.45;284.73;;;22.50;99.90;;;;;;5082829;28;20050;-69
2023/08/24 10:31:43;;;;;;;308.90;293.55;;;22.50;99.90;;;;;;5067575;28;20484;-68
2023/08/24 10:34:09;;;;;;;309.63;294.20;;;22.40;99.90;;;;;;5086737;28;20040;-69
2023/08/24 10:36:39;;;;;;;293.63;279.33;;;22.30;99.90;;;;;;5071099;28;20047;-68
2023/08/24 10:39:05;;;;;;;296.02;281.45;;;22.20;99.90;;;;;;5080943;28;20047;-69
2023/08/24 10:41:50;;;;;;;285.08;270.92;;;22.10;99.90;;;;;;5094229;28;20035;-69
2023/08/24 10:44:33;;;;;;;263.67;250.75;;;22.00;99.90;;;;;;5077125;28;20048;-68
2023/08/24 10:47:12;;;;;;;241.40;229.90;;;21.90;99.90;;;;;;5079228;28;20520;-69
2023/08/24 10:49:38;;;;;;;236.38;224.93;;;21.90;99.90;;;;;;5085853;28;20495;-68
2023/08/24 10:52:22;;;;;;;237.82;226.35;;;21.80;99.90;;;;;;5081408;28;20070;-68
2023/08/24 10:54:49;;;;;;;;;;;21.80;99.90;;;;;;5085046;28;20055;-68
2023/08/24 10:57:27;;;;;;;228.98;217.60;;;21.80;99.90;;;;;;5086547;28;19920;-69
2023/08/24 11:00:09;;;;;;;236.23;224.90;;;21.80;99.90;;;;;;5083483;28;20052;-68
2023/08/24 11:02:44;;;;;;;248.48;236.63;;;21.80;99.90;;;;;;5077762;28;20768;-68
2023/08/24 11:05:24;;;;;;;257.58;244.80;;;21.90;99.90;;;;;;5063116;28;20052;-69
2023/08/24 11:07:50;;;;;;;264.40;251.65;;;21.90;99.90;;;;;;5074448;28;20031;-69
2023/08/24 11:10:16;;;;;;;324.23;308.33;;;21.90;99.90;;;;;;5082734;28;20040;-69
2023/08/24 11:13:10;;;;;;;281.85;268.45;;;21.90;99.90;;;;;;5076805;28;20044;-69
2023/08/24 11:15:40;;;;;;;289.90;275.98;;;21.90;99.90;;;;;;5091280;28;20052;-68
2023/08/24 11:18:28;;;;;;;302.73;288.25;;;21.90;99.90;;;;;;5079708;28;20059;-69
2023/08/24 11:21:05;;;;;;;293.08;279.25;;;21.90;99.90;;;;;;5067900;28;20063;-69
2023/08/24 11:23:31;;;;;;;379.90;360.83;;;21.90;99.90;;;;;;5072343;28;20040;-69
2023/08/24 11:25:59;;;;;;;432.10;410.27;;;21.90;99.90;;;;;;5084122;28;20035;-69
2023/08/24 11:28:29;;;;;;;400.23;379.60;;;21.90;99.90;;;;;;5088337;28;20559;-69
2023/08/24 11:30:56;;;;;;;381.95;362.02;;;21.90;99.90;;;;;;5072596;28;20040;-69
2023/08/24 11:33:32;;;;;;;461.45;436.98;;;21.90;99.90;;;;;;5077525;28;20136;-69
2023/08/24 11:35:59;;;;;;;487.33;460.88;;;22.00;99.90;;;;;;5086706;28;20059;-69
2023/08/24 11:38:34;;;;;;;532.13;502.77;;;22.00;99.90;;;;;;5089279;28;20052;-69
2023/08/24 11:41:00;;;;;;;444.95;420.98;;;22.10;99.90;;;;;;5064961;28;20052;-69
2023/08/24 11:43:29;;;;;;;516.35;487.92;;;22.20;99.90;;;;;;5103269;28;20036;-69
2023/08/24 11:45:55;;;;;;;507.65;479.25;;;22.40;99.90;;;;;;5087544;28;20073;-69
2023/08/24 11:48:25;;;;;;;535.47;505.40;;;22.50;99.90;;;;;;5094258;28;20077;-69
2023/08/24 11:50:51;;;;;;;430.90;407.63;;;22.70;99.90;;;;;;5083269;28;20546;-69
2023/08/24 11:53:17;;;;;;;396.02;374.88;;;22.80;99.90;;;;;;5071893;28;20135;-69
2023/08/24 11:55:43;;;;;;;447.00;422.70;;;22.90;99.90;;;;;;5088238;28;20062;-69
2023/08/24 11:58:15;;;;;;;426.52;403.65;;;23.00;99.90;;;;;;5088967;28;20036;-69
2023/08/24 12:00:42;;;;;;;415.63;393.50;;;23.10;99.90;;;;;;5082442;28;20050;-69
2023/08/24 12:03:09;;;;;;;412.17;390.45;;;23.20;99.90;;;;;;5085325;28;20447;-69